Etusivu
METAR-TAF:

METAR-TAF

Lentoasemat :

Chongqing Jiangbein kansainvälinen lentoasema

Chongqing, Kiina

Leveyspiiri: 29-31N, Pituuspiiri: 106-29E, korkeus merenpinnasta: 351 m

Tämänhetkinen sää

Tämä raportti tehtiin 29 minuuttia sitten, kello 03.00 UTC
Tuuli 2 kn eri suunnista
Lämpötila 21°C
Kosteus 94%
Ilmanpaine 1013 hPa
Näkyvyys: 4500 m
Hajanaisia pilviä 1100 ft:n korkeudessa
Hajonneita pilviä 5000 ft:n korkeudessa
utua,

METAR: ZUCK 170300Z VRB01MPS 4500 BR SCT011 BKN050 21/20 Q1013 NOSIG

Aika: 11:29 (03:29 UTC)

Sääennuste

Tämä raportti tehtiin 6 tuntia ja 27 minuuttia sitten, kello 21.02 UTC
Ennuste voimassa 17. päivästä klo 00 UTC - 17. päivään klo 24 UTC
Tuuli 6 kn idästä/koillisesta
Näkyvyys: 6000 m
Hajanaisia pilviä 4000 ft:n korkeudessa

TAF: ZUCK 162102Z 1700/1724 06003MPS 6000 SCT040 TX26/1707Z TN19/1721Z

Säähavainnot ja -ennusteet yli 4000 lentoasemalta (METAR- ja TAF-raportit).

Käytössä olevat sääasemat on merkitty karttaan keltaisilla ja punaisilla pisteillä.

Aseta hiiri pisteen päälle nähdäksesi sääaseman nimen.

Klikkaa sitten nähdäksesi säähavainnot ja -ennusteet.

Kartan vaihtaminen: klikkaa mustalla rastilla varustettuja vihreitä pisteitä, niin voit zoomata sisään; viivalla varustettua vihreää pistettä, niin voit zoomata ulos tai vihreitä nuolia, niin pääset viereisille kartoille.


METAR-TAF: